Time;durP1;ratioP1;P1;durP2;ratioP2;P2;SDS_P1;SDS_P2;PMS_P1;PMS_P2;Temp;Humidity;BMP_temperature;BMP_pressure;BME280_temperature;BME280_humidity;BME280_pressure;Samples;Min_cycle;Max_cycle;Signal;HPM_P1;HPM_P2
2023/10/29 07:18:29;;;;;;;4.30;1.00;;;;;;;10.51;78.47;95259.19;2107764;27;20923;-63
2023/10/29 07:58:07;;;;;;;3.30;1.15;;;;;;;11.62;75.49;95288.22;2084207;28;20569;-65
2023/10/29 08:56:11;;;;;;;7.68;3.75;;;;;;;11.42;81.31;95256.44;2100863;27;20574;-63
2023/10/29 08:59:09;;;;;;;5.18;2.90;;;;;;;11.64;79.22;95262.78;2092806;27;20579;-63
2023/10/29 09:00:12;;;;;;;8.55;2.47;;;;;;;11.74;79.13;95255.13;2090501;28;20203;-63
2023/10/29 09:03:26;;;;;;;5.60;1.65;;;;;;;11.84;78.62;95253.50;2085288;28;20572;-63
2023/10/29 09:04:27;;;;;;;10.05;5.90;;;;;;;11.97;78.07;95257.91;2079213;28;20194;-64
2023/10/29 09:05:29;;;;;;;6.15;3.58;;;;;;;12.09;78.44;95259.63;2080003;28;20186;-64
2023/10/29 09:06:32;;;;;;;5.05;1.60;;;;;;;12.05;77.92;95261.63;2077903;28;20249;-64
2023/10/29 09:07:34;;;;;;;7.72;1.95;;;;;;;12.23;77.40;95264.69;2070715;28;20265;-63
2023/10/29 09:10:56;;;;;;;3.40;1.27;;;;;;;12.40;77.50;95249.50;2128206;27;20581;-64
2023/10/29 09:11:58;;;;;;;4.50;1.45;;;;;;;12.20;76.95;95249.22;2111513;27;20584;-64
2023/10/29 09:13:00;;;;;;;9.45;1.50;;;;;;;12.19;75.66;95251.91;2102112;28;20233;-63
2023/10/29 09:16:34;;;;;;;4.60;2.85;;;;;;;12.27;76.42;95251.38;2071949;28;20720;-64
2023/10/29 09:20:03;;;;;;;3.20;1.42;;;;;;;12.07;77.08;95245.81;2091679;27;20568;-63
2023/10/29 09:37:06;;;;;;;2.90;1.30;;;;;;;11.88;80.02;95226.22;2080923;28;21086;-65
2023/10/29 09:39:59;;;;;;;3.63;1.52;;;;;;;11.96;78.72;95228.28;2090796;27;20560;-65
2023/10/29 09:41:01;;;;;;;3.10;1.00;;;;;;;12.02;80.02;95237.47;2091030;28;20186;-65
2023/10/29 09:42:08;;;;;;;4.03;1.25;;;;;;;11.89;80.67;95224.41;2086067;27;20220;-65
2023/10/29 09:45:27;;;;;;;5.47;1.35;;;;;;;11.92;80.44;95234.63;2085207;28;21101;-63
2023/10/29 09:46:30;;;;;;;4.25;1.50;;;;;;;11.90;80.63;95232.16;2081134;28;20187;-64
2023/10/29 09:49:54;;;;;;;4.05;1.20;;;;;;;11.79;81.19;95221.63;2091705;28;21096;-63
2023/10/29 09:50:56;;;;;;;4.03;1.15;;;;;;;11.83;81.27;95215.22;2090171;28;20524;-64
2023/10/29 09:54:33;;;;;;;3.58;1.60;;;;;;;11.86;80.39;95201.09;2081998;28;20582;-65
2023/10/29 09:58:04;;;;;;;2.97;1.23;;;;;;;11.91;80.99;95205.03;2097620;27;20577;-64
2023/10/29 10:01:26;;;;;;;5.15;1.60;;;;;;;11.97;81.05;95209.00;2082022;28;20569;-64
2023/10/29 10:36:12;;;;;;;2.20;1.13;;;;;;;13.25;75.40;95209.03;2092501;27;20586;-62
2023/10/29 10:39:38;;;;;;;2.65;1.00;;;;;;;13.25;73.95;95206.41;2100471;27;20561;-63
2023/10/29 10:43:10;;;;;;;4.65;1.30;;;;;;;13.21;74.07;95207.63;2085832;27;21053;-62
2023/10/29 10:46:46;;;;;;;4.82;1.40;;;;;;;13.28;74.13;95205.34;2082501;28;20560;-64
2023/10/29 10:50:33;;;;;;;2.05;1.02;;;;;;;13.37;73.81;95194.19;2084088;28;20930;-62
2023/10/29 10:54:19;;;;;;;5.25;1.15;;;;;;;13.43;74.05;95188.44;2090500;27;21096;-63
2023/10/29 10:57:55;;;;;;;5.90;1.45;;;;;;;13.52;73.17;95179.00;2093702;27;20589;-61
2023/10/29 11:10:19;;;;;;;3.40;1.20;;;;;;;13.66;73.23;95156.91;2111330;27;21073;-64
2023/10/29 11:13:26;;;;;;;7.22;1.20;;;;;;;13.81;73.57;95173.22;2101784;27;20582;-64
2023/10/29 11:14:28;;;;;;;2.03;0.90;;;;;;;14.00;72.12;95173.38;2098876;28;20206;-65
2023/10/29 11:15:29;;;;;;;6.10;1.70;;;;;;;14.30;71.68;95174.44;2098464;28;20191;-65
2023/10/29 11:16:31;;;;;;;2.45;1.10;;;;;;;14.83;69.65;95167.44;2095534;28;20315;-65
2023/10/29 11:17:55;;;;;;;3.10;1.30;;;;;;;15.74;67.49;95166.66;2089664;28;20227;-64
2023/10/29 11:18:56;;;;;;;3.33;1.45;;;;;;;15.75;67.16;95170.94;2089094;28;20243;-65
2023/10/29 11:20:01;;;;;;;4.15;1.67;;;;;;;15.75;67.16;95153.34;2090043;28;20227;-65
2023/10/29 11:21:04;;;;;;;5.85;1.45;;;;;;;15.74;66.46;95156.94;2089434;28;20204;-65
2023/10/29 11:22:13;;;;;;;3.25;1.52;;;;;;;15.89;66.89;95169.75;2089918;28;20224;-65
2023/10/29 11:23:28;;;;;;;6.07;1.70;;;;;;;17.02;63.25;95172.69;2091308;28;20278;-65
2023/10/29 11:24:30;;;;;;;3.80;1.30;;;;;;;16.81;63.29;95160.47;2093074;28;20839;-64
2023/10/29 11:25:31;;;;;;;4.22;1.83;;;;;;;16.53;65.42;95151.69;2091270;28;20201;-65
2023/10/29 11:26:33;;;;;;;5.97;1.48;;;;;;;16.18;64.89;95150.50;2091542;28;20204;-65
2023/10/29 11:27:38;;;;;;;4.40;1.67;;;;;;;16.10;65.88;95148.53;2091789;28;20309;-65
2023/10/29 11:28:41;;;;;;;6.00;1.23;;;;;;;16.10;65.21;95149.38;2091266;28;20291;-65
2023/10/29 11:29:43;;;;;;;2.60;1.00;;;;;;;16.00;65.96;95151.19;2091192;28;20196;-65
2023/10/29 11:31:14;;;;;;;3.67;1.10;;;;;;;16.03;65.39;95148.25;2088421;28;20204;-65
2023/10/29 11:32:26;;;;;;;5.32;1.10;;;;;;;16.65;63.83;95140.84;2090190;28;20306;-65
2023/10/29 11:33:27;;;;;;;3.15;1.33;;;;;;;16.48;64.60;95125.75;2090503;28;20207;-65
2023/10/29 11:34:29;;;;;;;5.43;1.20;;;;;;;17.31;62.89;95140.91;2090732;28;20325;-65
2023/10/29 11:35:31;;;;;;;5.10;1.15;;;;;;;-145.49;100.00;55703.94;2088090;28;20203;-65
2023/10/29 11:36:38;;;;;;;5.32;1.42;;;;;;;-145.49;100.00;55703.94;2089535;28;20463;-65
2023/10/29 11:37:40;;;;;;;4.35;1.70;;;;;;;-145.49;100.00;55703.94;2089938;28;20214;-65
2023/10/29 11:38:41;;;;;;;5.30;1.75;;;;;;;-145.49;100.00;55703.94;2092808;28;20200;-65
2023/10/29 11:39:43;;;;;;;1.90;0.98;;;;;;;-145.49;100.00;55703.94;2089005;28;20196;-65
2023/10/29 11:40:45;;;;;;;3.30;1.10;;;;;;;-145.49;100.00;55703.94;2091747;28;20192;-65
2023/10/29 11:41:47;;;;;;;4.32;0.90;;;;;;;-145.49;100.00;55703.94;2091808;28;20551;-64
2023/10/29 11:43:15;;;;;;;7.57;1.05;;;;;;;-145.49;100.00;55703.94;2091145;28;20184;-64
2023/10/29 11:44:23;;;;;;;3.20;1.05;;;;;;;-145.49;100.00;55703.94;2089930;28;20204;-64
2023/10/29 11:45:28;;;;;;;5.57;1.35;;;;;;;-145.49;100.00;55703.94;2090841;28;20244;-65
2023/10/29 11:46:55;;;;;;;2.72;1.27;;;;;;;-145.49;100.00;55703.94;2088989;28;20196;-65
2023/10/29 11:48:06;;;;;;;8.15;1.60;;;;;;;-145.49;100.00;55703.94;2088132;28;20201;-65
2023/10/29 11:49:07;;;;;;;2.83;1.25;;;;;;;-145.49;100.00;55703.94;2090578;28;20235;-64
2023/10/29 11:50:10;;;;;;;6.63;1.77;;;;;;;-145.49;100.00;55703.94;2090409;28;20193;-64
2023/10/29 11:51:14;;;;;;;5.78;1.55;;;;;;;-145.49;100.00;55703.94;2089564;28;20197;-65
2023/10/29 11:52:16;;;;;;;4.68;1.50;;;;;;;-145.49;100.00;55703.94;2089883;28;20589;-65
2023/10/29 11:53:24;;;;;;;2.38;0.95;;;;;;;-145.49;100.00;55703.94;2089848;28;20219;-65
2023/10/29 11:54:26;;;;;;;3.30;1.33;;;;;;;-145.49;100.00;55703.94;2089002;28;20254;-65
2023/10/29 11:55:28;;;;;;;3.42;1.15;;;;;;;-145.49;100.00;55703.94;2089240;28;20271;-65
2023/10/29 11:56:32;;;;;;;2.67;1.08;;;;;;;-145.49;100.00;55703.94;2090372;28;20200;-65
2023/10/29 11:57:35;;;;;;;3.63;1.25;;;;;;;-145.49;100.00;55703.94;2089532;28;20196;-64
2023/10/29 11:58:37;;;;;;;6.45;1.30;;;;;;;-145.49;100.00;55703.94;2090627;28;20274;-65
2023/10/29 11:59:54;;;;;;;4.65;1.10;;;;;;;-145.49;100.00;55703.94;2090342;28;20691;-65
2023/10/29 12:00:59;;;;;;;3.65;1.10;;;;;;;-145.49;100.00;55703.94;2089828;28;20804;-65
2023/10/29 12:02:00;;;;;;;2.10;1.05;;;;;;;-145.49;100.00;55703.94;2088455;28;20299;-65
2023/10/29 12:03:02;;;;;;;3.25;1.00;;;;;;;-145.49;100.00;55703.94;2089252;28;20193;-65
2023/10/29 12:04:04;;;;;;;3.70;1.83;;;;;;;-145.49;100.00;55703.94;2089723;28;20224;-65
2023/10/29 12:05:10;;;;;;;2.70;1.00;;;;;;;-145.49;100.00;55703.94;2092050;28;20262;-65
2023/10/29 12:06:11;;;;;;;3.83;1.25;;;;;;;-145.49;100.00;55703.94;2097976;28;20203;-65
2023/10/29 12:07:26;;;;;;;3.65;1.40;;;;;;;-145.49;100.00;55703.94;2096820;28;20833;-65
2023/10/29 12:08:31;;;;;;;4.05;0.90;;;;;;;-145.49;100.00;55703.94;2090552;28;20203;-65
2023/10/29 12:09:34;;;;;;;3.20;0.93;;;;;;;-145.49;100.00;55703.94;2091376;28;20524;-65
2023/10/29 12:10:47;;;;;;;4.22;1.20;;;;;;;-145.49;100.00;55703.94;2087449;28;20189;-65
2023/10/29 12:11:52;;;;;;;2.75;1.15;;;;;;;-145.49;100.00;55703.94;2088786;28;20983;-65
2023/10/29 12:12:54;;;;;;;7.15;1.20;;;;;;;-145.49;100.00;55703.94;2088823;28;20224;-66
2023/10/29 12:13:55;;;;;;;3.15;0.90;;;;;;;-145.49;100.00;55703.94;2091037;28;20189;-65
2023/10/29 12:14:57;;;;;;;4.90;1.42;;;;;;;-145.49;100.00;55703.94;2089970;28;20239;-65
2023/10/29 12:16:00;;;;;;;3.20;1.00;;;;;;;-145.49;100.00;55703.94;2087903;28;20184;-65
2023/10/29 12:17:03;;;;;;;2.67;1.23;;;;;;;-145.49;100.00;55703.94;2086791;28;20216;-65
2023/10/29 12:18:05;;;;;;;6.05;0.88;;;;;;;-145.49;100.00;55703.94;2089390;28;20331;-65
2023/10/29 12:19:06;;;;;;;4.53;1.02;;;;;;;-145.49;100.00;55703.94;2090772;28;20779;-65
2023/10/29 12:20:08;;;;;;;4.15;1.00;;;;;;;-145.49;100.00;55703.94;2090349;28;20188;-65
2023/10/29 12:21:10;;;;;;;3.45;1.10;;;;;;;-145.49;100.00;55703.94;2090218;28;20610;-65
2023/10/29 12:22:15;;;;;;;7.60;1.20;;;;;;;-145.49;100.00;55703.94;2089698;28;20327;-65
2023/10/29 12:23:17;;;;;;;3.58;1.10;;;;;;;-145.49;100.00;55703.94;2088814;28;20193;-65
2023/10/29 12:24:19;;;;;;;5.10;1.17;;;;;;;-145.49;100.00;55703.94;2087295;28;20209;-65
2023/10/29 12:25:21;;;;;;;2.97;1.20;;;;;;;-145.49;100.00;55703.94;2084795;28;20193;-65
2023/10/29 12:26:25;;;;;;;8.68;1.15;;;;;;;-145.49;100.00;55703.94;2084475;28;20288;-65
2023/10/29 12:27:28;;;;;;;4.22;1.33;;;;;;;-145.49;100.00;55703.94;2084707;28;20253;-65
2023/10/29 12:28:32;;;;;;;5.43;1.23;;;;;;;-145.49;100.00;55703.94;2085451;28;20204;-65
2023/10/29 12:29:33;;;;;;;4.55;1.10;;;;;;;-145.49;100.00;55703.94;2083900;28;20189;-65
2023/10/29 12:30:38;;;;;;;2.05;1.13;;;;;;;-145.49;100.00;55703.94;2085024;28;20311;-64
2023/10/29 12:31:46;;;;;;;6.22;1.23;;;;;;;-145.49;100.00;55703.94;2082162;28;20201;-65
2023/10/29 12:32:47;;;;;;;2.38;0.88;;;;;;;-145.49;100.00;55703.94;2085212;28;20188;-65
2023/10/29 12:33:57;;;;;;;2.95;1.30;;;;;;;-145.49;100.00;55703.94;2085587;28;20208;-65
2023/10/29 12:34:59;;;;;;;4.07;1.00;;;;;;;-145.49;100.00;55703.94;2084722;28;20286;-65
2023/10/29 12:36:06;;;;;;;3.60;1.30;;;;;;;-145.49;100.00;55703.94;2083765;28;20228;-65
2023/10/29 12:37:08;;;;;;;5.43;1.00;;;;;;;-145.49;100.00;55703.94;2083833;28;20800;-65
2023/10/29 12:38:12;;;;;;;2.47;1.00;;;;;;;-145.49;100.00;55703.94;2084593;28;20185;-65
2023/10/29 12:39:14;;;;;;;1.40;0.80;;;;;;;-145.49;100.00;55703.94;2083016;28;20189;-65
2023/10/29 12:40:15;;;;;;;3.85;0.98;;;;;;;-145.49;100.00;55703.94;2082770;28;20189;-65
2023/10/29 12:41:18;;;;;;;1.98;1.00;;;;;;;-145.49;100.00;55703.94;2086673;28;20246;-65
2023/10/29 12:42:21;;;;;;;2.08;0.90;;;;;;;-145.49;100.00;55703.94;2084471;28;20251;-64
2023/10/29 12:43:35;;;;;;;4.07;1.17;;;;;;;-145.49;100.00;55703.94;2083721;28;20782;-63
2023/10/29 12:44:38;;;;;;;3.55;1.15;;;;;;;-145.49;100.00;55703.94;2082933;28;20193;-64
2023/10/29 12:45:39;;;;;;;2.90;1.00;;;;;;;-145.49;100.00;55703.94;2080923;28;20197;-63
2023/10/29 12:46:50;;;;;;;2.40;1.05;;;;;;;-145.49;100.00;55703.94;2083496;28;20201;-63
2023/10/29 12:48:11;;;;;;;2.50;1.08;;;;;;;-145.49;100.00;55703.94;2084929;28;20241;-64
2023/10/29 12:49:12;;;;;;;1.85;0.90;;;;;;;-145.49;100.00;55703.94;2083706;28;20196;-63
2023/10/29 12:50:14;;;;;;;2.15;1.02;;;;;;;-145.49;100.00;55703.94;2084649;28;20188;-63
2023/10/29 12:51:22;;;;;;;5.53;1.20;;;;;;;-145.49;100.00;55703.94;2084305;28;21114;-63
2023/10/29 12:52:23;;;;;;;2.42;1.10;;;;;;;-145.49;100.00;55703.94;2081315;28;20917;-63
2023/10/29 12:53:27;;;;;;;4.38;1.00;;;;;;;-145.49;100.00;55703.94;2084591;28;20201;-63
2023/10/29 12:54:29;;;;;;;5.57;1.20;;;;;;;-145.49;100.00;55703.94;2084595;28;20275;-63
2023/10/29 12:55:31;;;;;;;4.10;1.20;;;;;;;-145.49;100.00;55703.94;2084864;28;20677;-63
2023/10/29 12:56:32;;;;;;;5.18;1.10;;;;;;;-145.49;100.00;55703.94;2084700;28;20498;-63
2023/10/29 12:57:34;;;;;;;2.30;0.98;;;;;;;-145.49;100.00;55703.94;2084928;28;20348;-63
2023/10/29 12:58:35;;;;;;;2.65;1.02;;;;;;;-145.49;100.00;55703.94;2084738;28;20208;-63
2023/10/29 12:59:38;;;;;;;2.47;1.20;;;;;;;-145.49;100.00;55703.94;2084463;28;20288;-63
2023/10/29 13:00:39;;;;;;;3.15;1.23;;;;;;;-145.49;100.00;55703.94;2084292;28;20197;-63
2023/10/29 13:01:52;;;;;;;3.95;1.30;;;;;;;-145.49;100.00;55703.94;2086745;28;20687;-63
2023/10/29 13:02:54;;;;;;;4.43;1.10;;;;;;;-145.49;100.00;55703.94;2088518;28;20192;-64
2023/10/29 13:03:58;;;;;;;4.35;1.20;;;;;;;-145.49;100.00;55703.94;2084860;28;20192;-63
2023/10/29 13:05:01;;;;;;;2.63;1.20;;;;;;;-145.49;100.00;55703.94;2082379;28;20913;-63
2023/10/29 13:06:03;;;;;;;2.10;1.02;;;;;;;-145.49;100.00;55703.94;2084760;28;20758;-63
2023/10/29 13:07:08;;;;;;;3.20;1.00;;;;;;;-145.49;100.00;55703.94;2085012;28;20289;-63
2023/10/29 13:08:12;;;;;;;1.83;0.98;;;;;;;-145.49;100.00;55703.94;2087043;28;20747;-63
2023/10/29 13:09:18;;;;;;;1.67;0.93;;;;;;;-145.49;100.00;55703.94;2084089;28;20201;-63
2023/10/29 13:10:21;;;;;;;2.80;1.13;;;;;;;-145.49;100.00;55703.94;2083813;28;20189;-61
2023/10/29 13:11:22;;;;;;;2.03;1.10;;;;;;;-145.49;100.00;55703.94;2084628;28;20239;-62
2023/10/29 13:12:23;;;;;;;5.13;1.23;;;;;;;-145.49;100.00;55703.94;2082937;28;20761;-62
2023/10/29 13:13:26;;;;;;;2.67;1.10;;;;;;;-145.49;100.00;55703.94;2083175;28;20610;-62
2023/10/29 13:14:29;;;;;;;4.35;1.20;;;;;;;-145.49;100.00;55703.94;2085262;28;20299;-61
2023/10/29 13:15:30;;;;;;;3.15;0.90;;;;;;;-145.49;100.00;55703.94;2081155;28;20247;-61
2023/10/29 13:16:32;;;;;;;2.22;0.80;;;;;;;-145.49;100.00;55703.94;2081368;28;20204;-61
2023/10/29 13:17:33;;;;;;;4.80;0.98;;;;;;;-145.49;100.00;55703.94;2084633;28;20571;-61
2023/10/29 13:18:35;;;;;;;2.65;1.10;;;;;;;-145.49;100.00;55703.94;2087278;28;20664;-62
2023/10/29 13:19:37;;;;;;;4.13;1.60;;;;;;;-145.49;100.00;55703.94;2085689;28;20659;-62
2023/10/29 13:20:38;;;;;;;4.30;1.70;;;;;;;-145.49;100.00;55703.94;2081279;28;20348;-62
2023/10/29 13:21:40;;;;;;;3.90;2.05;;;;;;;-145.49;100.00;55703.94;2084155;28;20209;-62
2023/10/29 13:22:42;;;;;;;2.90;1.23;;;;;;;-145.49;100.00;55703.94;2081447;28;20201;-62
2023/10/29 13:23:46;;;;;;;9.25;3.22;;;;;;;-145.49;100.00;55703.94;2083552;28;20204;-61
2023/10/29 13:24:47;;;;;;;6.20;2.50;;;;;;;-145.49;100.00;55703.94;2083917;28;20200;-61
2023/10/29 13:25:55;;;;;;;3.80;1.20;;;;;;;-145.49;100.00;55703.94;2084553;28;20201;-62
2023/10/29 13:26:57;;;;;;;2.72;1.00;;;;;;;-145.49;100.00;55703.94;2082268;28;20617;-62
2023/10/29 13:27:58;;;;;;;4.18;1.00;;;;;;;-145.49;100.00;55703.94;2085188;28;20189;-63
2023/10/29 13:29:00;;;;;;;2.63;0.82;;;;;;;-145.49;100.00;55703.94;2084087;28;20194;-61
2023/10/29 13:30:02;;;;;;;2.60;1.17;;;;;;;-145.49;100.00;55703.94;2083847;28;20185;-62
2023/10/29 13:31:04;;;;;;;2.45;0.90;;;;;;;-145.49;100.00;55703.94;2084008;28;20279;-62
2023/10/29 13:32:06;;;;;;;2.35;1.05;;;;;;;-145.49;100.00;55703.94;2082553;28;20216;-62
2023/10/29 13:33:09;;;;;;;2.58;1.00;;;;;;;-145.49;100.00;55703.94;2085857;28;20266;-62
2023/10/29 13:34:15;;;;;;;5.45;1.27;;;;;;;-145.49;100.00;55703.94;2083967;28;20232;-62
2023/10/29 13:35:17;;;;;;;1.52;0.80;;;;;;;-145.49;100.00;55703.94;2084524;28;20192;-62
2023/10/29 13:36:22;;;;;;;1.48;0.90;;;;;;;-145.49;100.00;55703.94;2083694;28;20180;-62
2023/10/29 13:37:25;;;;;;;1.80;0.90;;;;;;;-145.49;100.00;55703.94;2083341;28;20274;-62
2023/10/29 13:38:26;;;;;;;2.55;1.00;;;;;;;-145.49;100.00;55703.94;2084535;28;20196;-62
2023/10/29 13:39:28;;;;;;;2.28;1.00;;;;;;;-145.49;100.00;55703.94;2083670;28;20607;-62
2023/10/29 13:40:29;;;;;;;3.20;1.30;;;;;;;-145.49;100.00;55703.94;2083518;28;20328;-63
2023/10/29 13:41:32;;;;;;;5.72;0.80;;;;;;;-145.49;100.00;55703.94;2082845;28;20288;-64
2023/10/29 13:42:33;;;;;;;2.55;1.30;;;;;;;-145.49;100.00;55703.94;2083274;28;20287;-64
2023/10/29 13:43:35;;;;;;;3.92;1.38;;;;;;;-145.49;100.00;55703.94;2080629;28;20197;-64
2023/10/29 13:44:40;;;;;;;3.00;1.10;;;;;;;-145.49;100.00;55703.94;2084911;28;20192;-63
2023/10/29 13:45:41;;;;;;;2.15;1.00;;;;;;;-145.49;100.00;55703.94;2081717;28;20227;-64
2023/10/29 13:46:43;;;;;;;4.35;1.40;;;;;;;-145.49;100.00;55703.94;2083579;28;20193;-64
2023/10/29 13:47:44;;;;;;;4.63;1.05;;;;;;;-145.49;100.00;55703.94;2081320;28;20760;-63
2023/10/29 13:48:48;;;;;;;4.72;1.30;;;;;;;-145.49;100.00;55703.94;2083415;28;20255;-64
2023/10/29 13:49:49;;;;;;;2.30;1.00;;;;;;;-145.49;100.00;55703.94;2084734;28;20250;-63
2023/10/29 13:50:51;;;;;;;7.43;1.25;;;;;;;-145.49;100.00;55703.94;2083903;28;20339;-64
2023/10/29 13:51:55;;;;;;;2.50;1.00;;;;;;;-145.49;100.00;55703.94;2082292;28;20614;-64
2023/10/29 13:52:57;;;;;;;4.70;0.90;;;;;;;-145.49;100.00;55703.94;2083747;28;20237;-63
2023/10/29 13:53:59;;;;;;;4.45;1.20;;;;;;;-145.49;100.00;55703.94;2085515;28;20184;-62
2023/10/29 13:55:01;;;;;;;5.45;1.35;;;;;;;-145.49;100.00;55703.94;2083848;28;20193;-62
2023/10/29 13:56:09;;;;;;;2.92;1.08;;;;;;;-145.49;100.00;55703.94;2084066;28;20200;-62
2023/10/29 13:57:11;;;;;;;4.10;1.00;;;;;;;-145.49;100.00;55703.94;2081309;28;20691;-62
2023/10/29 13:58:12;;;;;;;3.05;0.90;;;;;;;-145.49;100.00;55703.94;2083773;28;20663;-62
2023/10/29 13:59:14;;;;;;;3.15;1.10;;;;;;;-145.49;100.00;55703.94;2082786;28;20193;-62
2023/10/29 14:00:16;;;;;;;2.10;0.90;;;;;;;-145.49;100.00;55703.94;2083279;28;20283;-62
2023/10/29 14:01:23;;;;;;;3.35;1.00;;;;;;;-145.49;100.00;55703.94;2084588;28;20272;-62
2023/10/29 14:02:24;;;;;;;2.25;0.85;;;;;;;-145.49;100.00;55703.94;2083844;28;20221;-62
2023/10/29 14:03:26;;;;;;;3.72;1.20;;;;;;;-145.49;100.00;55703.94;2084775;28;20195;-63
2023/10/29 14:04:27;;;;;;;3.00;0.98;;;;;;;-145.49;100.00;55703.94;2084017;28;20731;-62
2023/10/29 14:05:29;;;;;;;2.45;1.00;;;;;;;-145.49;100.00;55703.94;2084073;28;20298;-63
2023/10/29 14:06:31;;;;;;;4.75;1.00;;;;;;;-145.49;100.00;55703.94;2084988;28;20191;-62
2023/10/29 14:07:33;;;;;;;3.05;1.02;;;;;;;-145.49;100.00;55703.94;2084595;28;20195;-62
2023/10/29 14:08:34;;;;;;;7.10;1.00;;;;;;;-145.49;100.00;55703.94;2083657;28;20576;-63
2023/10/29 14:09:36;;;;;;;3.80;1.00;;;;;;;-145.49;100.00;55703.94;2079714;28;20227;-63
2023/10/29 14:10:38;;;;;;;4.45;1.10;;;;;;;-145.49;100.00;55703.94;2083611;28;20280;-62
2023/10/29 14:11:40;;;;;;;2.17;0.90;;;;;;;-145.49;100.00;55703.94;2082890;28;20442;-62
2023/10/29 14:12:44;;;;;;;2.38;0.90;;;;;;;-145.49;100.00;55703.94;2082246;28;20208;-62
2023/10/29 14:13:49;;;;;;;5.75;1.10;;;;;;;-145.49;100.00;55703.94;2082572;28;20197;-62
2023/10/29 14:14:50;;;;;;;3.70;1.00;;;;;;;-145.49;100.00;55703.94;2085279;28;20221;-63
2023/10/29 14:15:57;;;;;;;5.72;1.00;;;;;;;-145.49;100.00;55703.94;2083535;28;20193;-62
2023/10/29 14:17:02;;;;;;;2.92;1.10;;;;;;;-145.49;100.00;55703.94;2085197;28;20220;-64
2023/10/29 14:18:03;;;;;;;3.85;0.90;;;;;;;-145.49;100.00;55703.94;2084427;28;20257;-64
2023/10/29 14:19:06;;;;;;;6.28;1.27;;;;;;;-145.49;100.00;55703.94;2081626;28;20561;-64
2023/10/29 14:20:09;;;;;;;4.70;1.10;;;;;;;-145.49;100.00;55703.94;2084170;28;20674;-64
2023/10/29 14:21:10;;;;;;;4.22;1.02;;;;;;;-145.49;100.00;55703.94;2081885;28;20189;-63
2023/10/29 14:22:12;;;;;;;4.82;1.30;;;;;;;-145.49;100.00;55703.94;2083689;28;20217;-64
2023/10/29 14:23:26;;;;;;;3.30;1.27;;;;;;;-145.49;100.00;55703.94;2081879;28;20238;-63
2023/10/29 14:24:29;;;;;;;3.58;1.10;;;;;;;-145.49;100.00;55703.94;2083747;28;20237;-64
2023/10/29 14:25:32;;;;;;;6.32;1.10;;;;;;;-145.49;100.00;55703.94;2084009;28;20204;-64
2023/10/29 14:26:34;;;;;;;2.90;1.27;;;;;;;-145.49;100.00;55703.94;2082924;28;20221;-64
2023/10/29 14:27:35;;;;;;;7.97;1.30;;;;;;;-145.49;100.00;55703.94;2083559;28;20197;-63
2023/10/29 14:28:37;;;;;;;2.47;1.05;;;;;;;-145.49;100.00;55703.94;2083124;28;20231;-64
2023/10/29 14:29:39;;;;;;;3.28;1.20;;;;;;;-145.49;100.00;55703.94;2079866;28;20460;-63
2023/10/29 14:30:40;;;;;;;6.28;1.05;;;;;;;-145.49;100.00;55703.94;2083928;28;20205;-64
2023/10/29 14:31:42;;;;;;;4.97;1.00;;;;;;;-145.49;100.00;55703.94;2081992;28;20196;-64
2023/10/29 14:32:44;;;;;;;8.95;4.88;;;;;;;-145.49;100.00;55703.94;2083779;28;20203;-64
2023/10/29 14:33:45;;;;;;;2.95;1.48;;;;;;;-145.49;100.00;55703.94;2080747;28;20223;-63
2023/10/29 14:34:47;;;;;;;4.00;1.73;;;;;;;-145.49;100.00;55703.94;2080672;28;20345;-64
2023/10/29 14:35:58;;;;;;;6.03;2.45;;;;;;;-145.49;100.00;55703.94;2083433;28;20242;-63
2023/10/29 14:37:00;;;;;;;2.58;1.30;;;;;;;-145.49;100.00;55703.94;2081741;28;20216;-63
2023/10/29 14:38:05;;;;;;;4.50;1.60;;;;;;;-145.49;100.00;55703.94;2083030;28;20544;-64
2023/10/29 14:39:07;;;;;;;5.50;2.45;;;;;;;-145.49;100.00;55703.94;2085226;28;20815;-64
2023/10/29 14:40:09;;;;;;;4.72;1.70;;;;;;;-145.49;100.00;55703.94;2084255;28;20193;-63
2023/10/29 14:41:15;;;;;;;3.88;1.52;;;;;;;-145.49;100.00;55703.94;2082632;28;20207;-64
2023/10/29 14:42:17;;;;;;;8.45;3.25;;;;;;;-145.49;100.00;55703.94;2082038;28;20763;-63
2023/10/29 14:43:21;;;;;;;10.95;3.65;;;;;;;-145.49;100.00;55703.94;2084003;28;20191;-63
2023/10/29 14:44:23;;;;;;;4.53;1.52;;;;;;;-145.49;100.00;55703.94;2084595;28;20559;-64
2023/10/29 14:45:26;;;;;;;7.93;3.63;;;;;;;-145.49;100.00;55703.94;2083812;28;20196;-64
2023/10/29 14:46:27;;;;;;;3.65;1.65;;;;;;;-145.49;100.00;55703.94;2084386;28;20581;-63
2023/10/29 14:47:29;;;;;;;6.20;2.78;;;;;;;-145.49;100.00;55703.94;2080332;28;20570;-64
2023/10/29 14:48:30;;;;;;;10.55;5.40;;;;;;;-145.49;100.00;55703.94;2082871;28;20189;-64
2023/10/29 14:49:32;;;;;;;9.13;1.45;;;;;;;-145.49;100.00;55703.94;2083705;28;20208;-64
2023/10/29 14:50:35;;;;;;;5.80;2.30;;;;;;;-145.49;100.00;55703.94;2083588;28;20199;-64
2023/10/29 14:51:36;;;;;;;17.88;8.52;;;;;;;-145.49;100.00;55703.94;2083192;28;20219;-64
2023/10/29 14:52:39;;;;;;;12.73;5.68;;;;;;;-145.49;100.00;55703.94;2083767;28;20663;-63
2023/10/29 14:53:41;;;;;;;4.70;1.65;;;;;;;-145.49;100.00;55703.94;2083329;28;20204;-63
2023/10/29 14:54:42;;;;;;;18.90;7.80;;;;;;;-145.49;100.00;55703.94;2084603;28;20196;-63
